sensor_id;sensor_type;location;lat;lon;timestamp;P1;durP1;ratioP1;P2;durP2;ratioP2
39454;SDS011;25155;41.890;23.446;2022-12-29T00:01:34;133.35;;;85.63;;
39454;SDS011;25155;41.890;23.446;2022-12-29T00:04:01;132.93;;;84.13;;
39454;SDS011;25155;41.890;23.446;2022-12-29T00:06:30;142.27;;;87.60;;
39454;SDS011;25155;41.890;23.446;2022-12-29T00:08:58;126.25;;;81.57;;
39454;SDS011;25155;41.890;23.446;2022-12-29T00:11:26;123.80;;;80.63;;
39454;SDS011;25155;41.890;23.446;2022-12-29T00:13:54;110.70;;;73.63;;
39454;SDS011;25155;41.890;23.446;2022-12-29T00:16:40;193.07;;;122.70;;
39454;SDS011;25155;41.890;23.446;2022-12-29T00:19:11;191.27;;;121.68;;
39454;SDS011;25155;41.890;23.446;2022-12-29T00:21:54;218.27;;;134.35;;
39454;SDS011;25155;41.890;23.446;2022-12-29T00:24:39;174.82;;;109.22;;
39454;SDS011;25155;41.890;23.446;2022-12-29T00:27:23;142.85;;;93.82;;
39454;SDS011;25155;41.890;23.446;2022-12-29T00:30:09;182.02;;;115.40;;
39454;SDS011;25155;41.890;23.446;2022-12-29T00:32:55;257.05;;;163.43;;
39454;SDS011;25155;41.890;23.446;2022-12-29T00:35:54;261.88;;;169.35;;
39454;SDS011;25155;41.890;23.446;2022-12-29T00:38:28;294.02;;;186.70;;
39454;SDS011;25155;41.890;23.446;2022-12-29T00:41:15;230.57;;;148.38;;
39454;SDS011;25155;41.890;23.446;2022-12-29T00:43:59;210.30;;;128.02;;
39454;SDS011;25155;41.890;23.446;2022-12-29T00:46:35;290.70;;;186.07;;
39454;SDS011;25155;41.890;23.446;2022-12-29T00:49:03;277.63;;;178.23;;
39454;SDS011;25155;41.890;23.446;2022-12-29T00:51:49;265.48;;;166.65;;
39454;SDS011;25155;41.890;23.446;2022-12-29T00:54:18;227.65;;;146.15;;
39454;SDS011;25155;41.890;23.446;2022-12-29T00:56:45;182.15;;;116.20;;
39454;SDS011;25155;41.890;23.446;2022-12-29T00:59:14;190.10;;;121.13;;
39454;SDS011;25155;41.890;23.446;2022-12-29T01:01:42;167.30;;;107.63;;
39454;SDS011;25155;41.890;23.446;2022-12-29T01:04:09;137.30;;;89.07;;
39454;SDS011;25155;41.890;23.446;2022-12-29T01:06:37;145.27;;;94.07;;
39454;SDS011;25155;41.890;23.446;2022-12-29T01:09:06;165.25;;;101.85;;
39454;SDS011;25155;41.890;23.446;2022-12-29T01:11:53;129.07;;;83.43;;
39454;SDS011;25155;41.890;23.446;2022-12-29T01:14:21;122.22;;;78.18;;
39454;SDS011;25155;41.890;23.446;2022-12-29T01:16:49;104.35;;;67.90;;
39454;SDS011;25155;41.890;23.446;2022-12-29T01:19:17;160.50;;;103.75;;
39454;SDS011;25155;41.890;23.446;2022-12-29T01:21:45;195.35;;;124.30;;
39454;SDS011;25155;41.890;23.446;2022-12-29T01:24:13;154.27;;;101.85;;
39454;SDS011;25155;41.890;23.446;2022-12-29T01:26:40;180.57;;;115.15;;
39454;SDS011;25155;41.890;23.446;2022-12-29T01:29:10;162.73;;;103.47;;
39454;SDS011;25155;41.890;23.446;2022-12-29T01:31:37;131.80;;;85.70;;
39454;SDS011;25155;41.890;23.446;2022-12-29T01:34:04;138.85;;;91.60;;
39454;SDS011;25155;41.890;23.446;2022-12-29T01:36:32;133.05;;;85.95;;
39454;SDS011;25155;41.890;23.446;2022-12-29T01:38:59;109.07;;;76.05;;
39454;SDS011;25155;41.890;23.446;2022-12-29T01:41:27;82.93;;;56.97;;
39454;SDS011;25155;41.890;23.446;2022-12-29T01:43:55;67.80;;;48.97;;
39454;SDS011;25155;41.890;23.446;2022-12-29T01:46:27;108.10;;;72.00;;
39454;SDS011;25155;41.890;23.446;2022-12-29T01:48:58;108.47;;;72.60;;
39454;SDS011;25155;41.890;23.446;2022-12-29T01:51:31;103.75;;;71.72;;
39454;SDS011;25155;41.890;23.446;2022-12-29T01:54:05;113.57;;;74.13;;
39454;SDS011;25155;41.890;23.446;2022-12-29T01:56:35;96.38;;;65.70;;
39454;SDS011;25155;41.890;23.446;2022-12-29T01:59:04;85.72;;;57.95;;
39454;SDS011;25155;41.890;23.446;2022-12-29T02:01:38;73.82;;;50.25;;
39454;SDS011;25155;41.890;23.446;2022-12-29T02:04:05;80.45;;;53.28;;
39454;SDS011;25155;41.890;23.446;2022-12-29T02:06:36;64.95;;;46.28;;
39454;SDS011;25155;41.890;23.446;2022-12-29T02:09:08;55.92;;;41.45;;
39454;SDS011;25155;41.890;23.446;2022-12-29T02:11:36;49.45;;;36.85;;
39454;SDS011;25155;41.890;23.446;2022-12-29T02:14:08;95.57;;;65.95;;
39454;SDS011;25155;41.890;23.446;2022-12-29T02:16:42;77.88;;;53.20;;
39454;SDS011;25155;41.890;23.446;2022-12-29T02:22:39;47.38;;;34.55;;
39454;SDS011;25155;41.890;23.446;2022-12-29T02:25:29;40.90;;;28.85;;
39454;SDS011;25155;41.890;23.446;2022-12-29T02:28:31;33.88;;;25.35;;
39454;SDS011;25155;41.890;23.446;2022-12-29T02:31:22;35.95;;;26.83;;
39454;SDS011;25155;41.890;23.446;2022-12-29T02:34:00;38.20;;;26.60;;
39454;SDS011;25155;41.890;23.446;2022-12-29T02:36:37;44.15;;;33.88;;
39454;SDS011;25155;41.890;23.446;2022-12-29T02:39:12;44.15;;;31.08;;
39454;SDS011;25155;41.890;23.446;2022-12-29T02:41:49;35.42;;;26.40;;
39454;SDS011;25155;41.890;23.446;2022-12-29T02:44:26;36.15;;;25.77;;
39454;SDS011;25155;41.890;23.446;2022-12-29T02:47:04;28.23;;;21.05;;
39454;SDS011;25155;41.890;23.446;2022-12-29T02:49:38;35.25;;;26.05;;
39454;SDS011;25155;41.890;23.446;2022-12-29T02:54:49;31.33;;;23.13;;
39454;SDS011;25155;41.890;23.446;2022-12-29T02:57:28;29.58;;;21.67;;
39454;SDS011;25155;41.890;23.446;2022-12-29T02:59:58;28.38;;;19.65;;
39454;SDS011;25155;41.890;23.446;2022-12-29T03:02:42;25.95;;;18.90;;
39454;SDS011;25155;41.890;23.446;2022-12-29T03:05:27;23.77;;;17.25;;
39454;SDS011;25155;41.890;23.446;2022-12-29T03:08:06;31.27;;;22.75;;
39454;SDS011;25155;41.890;23.446;2022-12-29T03:10:45;25.77;;;19.45;;
39454;SDS011;25155;41.890;23.446;2022-12-29T03:13:23;19.30;;;14.75;;
39454;SDS011;25155;41.890;23.446;2022-12-29T03:16:14;20.77;;;15.05;;
39454;SDS011;25155;41.890;23.446;2022-12-29T03:18:51;18.35;;;13.18;;
39454;SDS011;25155;41.890;23.446;2022-12-29T03:21:26;15.10;;;10.93;;
39454;SDS011;25155;41.890;23.446;2022-12-29T03:26:44;18.48;;;13.20;;
39454;SDS011;25155;41.890;23.446;2022-12-29T03:29:14;16.27;;;11.40;;
39454;SDS011;25155;41.890;23.446;2022-12-29T03:31:43;24.88;;;17.33;;
39454;SDS011;25155;41.890;23.446;2022-12-29T03:34:14;21.63;;;14.98;;
39454;SDS011;25155;41.890;23.446;2022-12-29T03:36:45;19.52;;;13.80;;
39454;SDS011;25155;41.890;23.446;2022-12-29T03:39:16;17.58;;;12.43;;
39454;SDS011;25155;41.890;23.446;2022-12-29T03:41:47;15.55;;;10.93;;
39454;SDS011;25155;41.890;23.446;2022-12-29T03:44:18;16.05;;;10.52;;
39454;SDS011;25155;41.890;23.446;2022-12-29T03:46:45;13.10;;;9.40;;
39454;SDS011;25155;41.890;23.446;2022-12-29T03:49:14;10.48;;;8.13;;
39454;SDS011;25155;41.890;23.446;2022-12-29T03:51:41;10.90;;;8.13;;
39454;SDS011;25155;41.890;23.446;2022-12-29T03:54:08;12.93;;;9.05;;
39454;SDS011;25155;41.890;23.446;2022-12-29T03:56:36;14.02;;;9.80;;
39454;SDS011;25155;41.890;23.446;2022-12-29T03:59:03;13.48;;;9.68;;
39454;SDS011;25155;41.890;23.446;2022-12-29T04:01:30;15.45;;;10.63;;
39454;SDS011;25155;41.890;23.446;2022-12-29T04:03:57;22.70;;;16.67;;
39454;SDS011;25155;41.890;23.446;2022-12-29T04:06:26;24.95;;;18.63;;
39454;SDS011;25155;41.890;23.446;2022-12-29T04:08:53;27.48;;;19.38;;
39454;SDS011;25155;41.890;23.446;2022-12-29T04:11:21;29.42;;;21.15;;
39454;SDS011;25155;41.890;23.446;2022-12-29T04:13:49;26.60;;;18.00;;
39454;SDS011;25155;41.890;23.446;2022-12-29T04:16:16;21.92;;;16.15;;
39454;SDS011;25155;41.890;23.446;2022-12-29T04:18:43;33.45;;;22.08;;
39454;SDS011;25155;41.890;23.446;2022-12-29T04:21:11;20.80;;;15.20;;
39454;SDS011;25155;41.890;23.446;2022-12-29T04:23:39;21.27;;;15.65;;
39454;SDS011;25155;41.890;23.446;2022-12-29T04:26:07;24.13;;;17.35;;
39454;SDS011;25155;41.890;23.446;2022-12-29T04:28:35;21.10;;;14.27;;
39454;SDS011;25155;41.890;23.446;2022-12-29T04:31:03;19.92;;;14.45;;
39454;SDS011;25155;41.890;23.446;2022-12-29T04:33:31;34.92;;;22.10;;
39454;SDS011;25155;41.890;23.446;2022-12-29T04:35:58;24.95;;;16.60;;
39454;SDS011;25155;41.890;23.446;2022-12-29T04:38:25;19.63;;;13.70;;
39454;SDS011;25155;41.890;23.446;2022-12-29T04:40:54;17.90;;;12.43;;
39454;SDS011;25155;41.890;23.446;2022-12-29T04:43:21;16.75;;;12.30;;
39454;SDS011;25155;41.890;23.446;2022-12-29T04:45:48;15.85;;;11.65;;
39454;SDS011;25155;41.890;23.446;2022-12-29T04:48:16;18.17;;;13.35;;
39454;SDS011;25155;41.890;23.446;2022-12-29T04:50:43;18.50;;;13.43;;
39454;SDS011;25155;41.890;23.446;2022-12-29T04:53:10;21.63;;;16.50;;
39454;SDS011;25155;41.890;23.446;2022-12-29T04:55:38;22.90;;;17.25;;
39454;SDS011;25155;41.890;23.446;2022-12-29T04:58:06;26.27;;;19.40;;
39454;SDS011;25155;41.890;23.446;2022-12-29T05:00:33;23.23;;;15.85;;
39454;SDS011;25155;41.890;23.446;2022-12-29T05:03:01;21.13;;;15.88;;
39454;SDS011;25155;41.890;23.446;2022-12-29T05:05:28;17.33;;;12.38;;
39454;SDS011;25155;41.890;23.446;2022-12-29T05:07:55;15.52;;;10.55;;
39454;SDS011;25155;41.890;23.446;2022-12-29T05:10:23;13.50;;;9.00;;
39454;SDS011;25155;41.890;23.446;2022-12-29T05:12:50;12.73;;;8.45;;
39454;SDS011;25155;41.890;23.446;2022-12-29T05:15:19;12.88;;;8.57;;
39454;SDS011;25155;41.890;23.446;2022-12-29T05:17:47;16.58;;;8.90;;
39454;SDS011;25155;41.890;23.446;2022-12-29T05:20:14;20.27;;;10.85;;
39454;SDS011;25155;41.890;23.446;2022-12-29T05:22:41;23.85;;;13.18;;
39454;SDS011;25155;41.890;23.446;2022-12-29T05:25:09;32.67;;;18.45;;
39454;SDS011;25155;41.890;23.446;2022-12-29T05:27:36;42.25;;;21.65;;
39454;SDS011;25155;41.890;23.446;2022-12-29T05:30:04;46.42;;;26.05;;
39454;SDS011;25155;41.890;23.446;2022-12-29T05:32:33;73.38;;;37.63;;
39454;SDS011;25155;41.890;23.446;2022-12-29T05:35:01;54.45;;;31.40;;
39454;SDS011;25155;41.890;23.446;2022-12-29T05:37:28;45.30;;;26.42;;
39454;SDS011;25155;41.890;23.446;2022-12-29T05:39:55;45.15;;;27.20;;
39454;SDS011;25155;41.890;23.446;2022-12-29T05:42:24;43.38;;;27.25;;
39454;SDS011;25155;41.890;23.446;2022-12-29T05:44:51;61.10;;;36.97;;
39454;SDS011;25155;41.890;23.446;2022-12-29T05:47:19;66.40;;;38.25;;
39454;SDS011;25155;41.890;23.446;2022-12-29T05:49:47;47.55;;;31.40;;
39454;SDS011;25155;41.890;23.446;2022-12-29T05:52:15;50.60;;;30.50;;
39454;SDS011;25155;41.890;23.446;2022-12-29T05:54:42;38.00;;;24.45;;
39454;SDS011;25155;41.890;23.446;2022-12-29T05:57:09;42.47;;;25.48;;
39454;SDS011;25155;41.890;23.446;2022-12-29T05:59:36;41.20;;;26.38;;
39454;SDS011;25155;41.890;23.446;2022-12-29T06:02:04;33.55;;;22.58;;
39454;SDS011;25155;41.890;23.446;2022-12-29T06:04:31;42.85;;;26.73;;
39454;SDS011;25155;41.890;23.446;2022-12-29T06:07:00;47.17;;;28.10;;
39454;SDS011;25155;41.890;23.446;2022-12-29T06:09:27;68.63;;;36.33;;
39454;SDS011;25155;41.890;23.446;2022-12-29T06:11:54;63.60;;;33.70;;
39454;SDS011;25155;41.890;23.446;2022-12-29T06:14:21;99.22;;;51.28;;
39454;SDS011;25155;41.890;23.446;2022-12-29T06:16:49;74.93;;;41.85;;
39454;SDS011;25155;41.890;23.446;2022-12-29T06:19:16;85.13;;;43.72;;
39454;SDS011;25155;41.890;23.446;2022-12-29T06:21:43;91.25;;;46.50;;
39454;SDS011;25155;41.890;23.446;2022-12-29T06:24:12;76.38;;;39.25;;
39454;SDS011;25155;41.890;23.446;2022-12-29T06:26:39;124.80;;;64.75;;
39454;SDS011;25155;41.890;23.446;2022-12-29T06:29:07;132.00;;;68.15;;
39454;SDS011;25155;41.890;23.446;2022-12-29T06:31:35;104.32;;;56.55;;
39454;SDS011;25155;41.890;23.446;2022-12-29T06:34:02;116.82;;;61.65;;
39454;SDS011;25155;41.890;23.446;2022-12-29T06:36:30;93.75;;;51.80;;
39454;SDS011;25155;41.890;23.446;2022-12-29T06:38:57;84.50;;;47.67;;
39454;SDS011;25155;41.890;23.446;2022-12-29T06:41:26;81.47;;;47.28;;
39454;SDS011;25155;41.890;23.446;2022-12-29T06:43:53;69.20;;;40.42;;
39454;SDS011;25155;41.890;23.446;2022-12-29T06:46:20;67.80;;;40.03;;
39454;SDS011;25155;41.890;23.446;2022-12-29T06:48:48;128.13;;;70.63;;
39454;SDS011;25155;41.890;23.446;2022-12-29T06:51:15;128.68;;;68.68;;
39454;SDS011;25155;41.890;23.446;2022-12-29T06:53:42;100.78;;;57.00;;
39454;SDS011;25155;41.890;23.446;2022-12-29T06:56:09;97.60;;;53.00;;
39454;SDS011;25155;41.890;23.446;2022-12-29T06:58:38;78.05;;;45.08;;
39454;SDS011;25155;41.890;23.446;2022-12-29T07:01:06;97.95;;;55.28;;
39454;SDS011;25155;41.890;23.446;2022-12-29T07:03:33;84.47;;;47.00;;
39454;SDS011;25155;41.890;23.446;2022-12-29T07:06:00;70.07;;;41.35;;
39454;SDS011;25155;41.890;23.446;2022-12-29T07:08:27;70.93;;;39.50;;
39454;SDS011;25155;41.890;23.446;2022-12-29T07:10:55;69.07;;;37.72;;
39454;SDS011;25155;41.890;23.446;2022-12-29T07:13:22;71.10;;;38.75;;
39454;SDS011;25155;41.890;23.446;2022-12-29T07:15:51;78.38;;;40.92;;
39454;SDS011;25155;41.890;23.446;2022-12-29T07:18:18;74.07;;;40.80;;
39454;SDS011;25155;41.890;23.446;2022-12-29T07:20:45;105.53;;;54.30;;
39454;SDS011;25155;41.890;23.446;2022-12-29T07:23:13;109.03;;;52.28;;
39454;SDS011;25155;41.890;23.446;2022-12-29T07:25:40;98.47;;;57.78;;
39454;SDS011;25155;41.890;23.446;2022-12-29T07:28:08;150.07;;;87.30;;
39454;SDS011;25155;41.890;23.446;2022-12-29T07:30:36;154.43;;;92.88;;
39454;SDS011;25155;41.890;23.446;2022-12-29T07:33:05;119.40;;;73.18;;
39454;SDS011;25155;41.890;23.446;2022-12-29T07:35:33;137.27;;;85.18;;
39454;SDS011;25155;41.890;23.446;2022-12-29T07:38:00;123.35;;;77.07;;
39454;SDS011;25155;41.890;23.446;2022-12-29T07:40:28;102.85;;;64.78;;
39454;SDS011;25155;41.890;23.446;2022-12-29T07:42:55;86.22;;;55.33;;
39454;SDS011;25155;41.890;23.446;2022-12-29T07:45:22;142.60;;;84.38;;
39454;SDS011;25155;41.890;23.446;2022-12-29T07:47:49;172.00;;;102.50;;
39454;SDS011;25155;41.890;23.446;2022-12-29T07:50:18;159.23;;;95.40;;
39454;SDS011;25155;41.890;23.446;2022-12-29T07:52:46;176.18;;;106.32;;
39454;SDS011;25155;41.890;23.446;2022-12-29T07:55:13;157.68;;;95.25;;
39454;SDS011;25155;41.890;23.446;2022-12-29T07:57:40;160.80;;;99.55;;
39454;SDS011;25155;41.890;23.446;2022-12-29T08:00:08;169.40;;;100.57;;
39454;SDS011;25155;41.890;23.446;2022-12-29T08:02:36;184.27;;;106.35;;
39454;SDS011;25155;41.890;23.446;2022-12-29T08:05:04;169.68;;;96.63;;
39454;SDS011;25155;41.890;23.446;2022-12-29T08:07:33;151.50;;;91.63;;
39454;SDS011;25155;41.890;23.446;2022-12-29T08:10:00;166.27;;;93.40;;
39454;SDS011;25155;41.890;23.446;2022-12-29T08:12:28;149.10;;;89.07;;
39454;SDS011;25155;41.890;23.446;2022-12-29T08:14:55;147.85;;;84.10;;
39454;SDS011;25155;41.890;23.446;2022-12-29T08:17:23;143.13;;;84.22;;
39454;SDS011;25155;41.890;23.446;2022-12-29T08:19:50;110.10;;;65.40;;
39454;SDS011;25155;41.890;23.446;2022-12-29T08:22:17;118.95;;;69.35;;
39454;SDS011;25155;41.890;23.446;2022-12-29T08:24:46;84.95;;;52.75;;
39454;SDS011;25155;41.890;23.446;2022-12-29T08:27:13;75.97;;;47.92;;
39454;SDS011;25155;41.890;23.446;2022-12-29T08:29:41;92.63;;;54.50;;
39454;SDS011;25155;41.890;23.446;2022-12-29T08:32:08;65.35;;;42.90;;
39454;SDS011;25155;41.890;23.446;2022-12-29T08:34:36;66.20;;;41.95;;
39454;SDS011;25155;41.890;23.446;2022-12-29T08:37:03;55.53;;;35.92;;
39454;SDS011;25155;41.890;23.446;2022-12-29T08:39:30;52.85;;;34.38;;
39454;SDS011;25155;41.890;23.446;2022-12-29T08:41:59;47.00;;;29.85;;
39454;SDS011;25155;41.890;23.446;2022-12-29T08:44:26;105.53;;;61.67;;
39454;SDS011;25155;41.890;23.446;2022-12-29T08:46:54;116.88;;;72.00;;
39454;SDS011;25155;41.890;23.446;2022-12-29T08:49:21;111.82;;;69.20;;
39454;SDS011;25155;41.890;23.446;2022-12-29T08:51:48;71.85;;;43.60;;
39454;SDS011;25155;41.890;23.446;2022-12-29T08:54:16;118.90;;;71.25;;
39454;SDS011;25155;41.890;23.446;2022-12-29T08:56:44;133.25;;;79.38;;
39454;SDS011;25155;41.890;23.446;2022-12-29T08:59:14;78.00;;;49.38;;
39454;SDS011;25155;41.890;23.446;2022-12-29T09:01:42;88.10;;;56.33;;
39454;SDS011;25155;41.890;23.446;2022-12-29T09:04:09;94.03;;;55.65;;
39454;SDS011;25155;41.890;23.446;2022-12-29T09:06:36;150.48;;;90.82;;
39454;SDS011;25155;41.890;23.446;2022-12-29T09:09:04;125.90;;;77.93;;
39454;SDS011;25155;41.890;23.446;2022-12-29T09:11:31;109.35;;;69.10;;
39454;SDS011;25155;41.890;23.446;2022-12-29T09:13:58;68.20;;;45.13;;
39454;SDS011;25155;41.890;23.446;2022-12-29T09:16:27;209.63;;;133.63;;
39454;SDS011;25155;41.890;23.446;2022-12-29T09:18:54;181.90;;;110.22;;
39454;SDS011;25155;41.890;23.446;2022-12-29T09:21:21;180.95;;;108.00;;
39454;SDS011;25155;41.890;23.446;2022-12-29T09:23:49;189.15;;;114.40;;
39454;SDS011;25155;41.890;23.446;2022-12-29T09:26:16;150.80;;;93.05;;
39454;SDS011;25155;41.890;23.446;2022-12-29T09:28:43;174.98;;;104.20;;
39454;SDS011;25155;41.890;23.446;2022-12-29T09:31:11;82.63;;;54.72;;
39454;SDS011;25155;41.890;23.446;2022-12-29T12:48:04;12.32;;;9.32;;
39454;SDS011;25155;41.890;23.446;2022-12-29T12:50:59;12.98;;;9.80;;
39454;SDS011;25155;41.890;23.446;2022-12-29T12:53:43;8.38;;;5.93;;
39454;SDS011;25155;41.890;23.446;2022-12-29T12:56:31;13.90;;;9.38;;
39454;SDS011;25155;41.890;23.446;2022-12-29T12:59:13;11.35;;;8.40;;
39454;SDS011;25155;41.890;23.446;2022-12-29T13:01:50;21.63;;;14.45;;
39454;SDS011;25155;41.890;23.446;2022-12-29T13:04:30;14.73;;;9.55;;
39454;SDS011;25155;41.890;23.446;2022-12-29T13:07:09;11.13;;;7.97;;
39454;SDS011;25155;41.890;23.446;2022-12-29T13:09:48;11.05;;;6.65;;
39454;SDS011;25155;41.890;23.446;2022-12-29T13:12:31;19.80;;;12.52;;
39454;SDS011;25155;41.890;23.446;2022-12-29T13:15:12;49.25;;;30.50;;
39454;SDS011;25155;41.890;23.446;2022-12-29T13:25:30;15.82;;;9.77;;
39454;SDS011;25155;41.890;23.446;2022-12-29T13:28:05;17.13;;;11.05;;
39454;SDS011;25155;41.890;23.446;2022-12-29T13:30:41;30.95;;;18.35;;
39454;SDS011;25155;41.890;23.446;2022-12-29T13:33:16;12.23;;;7.28;;
39454;SDS011;25155;41.890;23.446;2022-12-29T13:35:52;26.23;;;14.63;;
39454;SDS011;25155;41.890;23.446;2022-12-29T13:38:30;7.10;;;4.90;;
39454;SDS011;25155;41.890;23.446;2022-12-29T13:41:04;26.55;;;16.00;;
39454;SDS011;25155;41.890;23.446;2022-12-29T13:43:35;13.55;;;8.55;;
39454;SDS011;25155;41.890;23.446;2022-12-29T13:46:07;16.65;;;10.55;;
39454;SDS011;25155;41.890;23.446;2022-12-29T13:48:39;20.73;;;13.02;;
39454;SDS011;25155;41.890;23.446;2022-12-29T13:51:11;13.32;;;8.55;;
39454;SDS011;25155;41.890;23.446;2022-12-29T13:53:46;13.77;;;8.30;;
39454;SDS011;25155;41.890;23.446;2022-12-29T13:56:24;12.75;;;8.27;;
39454;SDS011;25155;41.890;23.446;2022-12-29T13:58:58;7.90;;;4.90;;
39454;SDS011;25155;41.890;23.446;2022-12-29T14:01:33;7.28;;;4.95;;
39454;SDS011;25155;41.890;23.446;2022-12-29T14:04:09;8.25;;;5.13;;
39454;SDS011;25155;41.890;23.446;2022-12-29T14:06:39;8.80;;;5.50;;
39454;SDS011;25155;41.890;23.446;2022-12-29T14:12:19;4.25;;;2.63;;
39454;SDS011;25155;41.890;23.446;2022-12-29T14:14:57;4.47;;;2.83;;
39454;SDS011;25155;41.890;23.446;2022-12-29T14:17:31;5.93;;;4.13;;
39454;SDS011;25155;41.890;23.446;2022-12-29T14:19:58;5.60;;;3.45;;
39454;SDS011;25155;41.890;23.446;2022-12-29T14:22:26;5.10;;;2.97;;
39454;SDS011;25155;41.890;23.446;2022-12-29T14:24:54;5.22;;;3.40;;
39454;SDS011;25155;41.890;23.446;2022-12-29T14:33:16;5.47;;;3.80;;
39454;SDS011;25155;41.890;23.446;2022-12-29T14:35:44;5.80;;;4.20;;
39454;SDS011;25155;41.890;23.446;2022-12-29T14:38:18;6.25;;;4.25;;
39454;SDS011;25155;41.890;23.446;2022-12-29T14:40:48;4.78;;;2.95;;
39454;SDS011;25155;41.890;23.446;2022-12-29T14:43:24;4.60;;;2.70;;
39454;SDS011;25155;41.890;23.446;2022-12-29T14:45:58;5.72;;;3.60;;
39454;SDS011;25155;41.890;23.446;2022-12-29T14:48:31;5.15;;;3.40;;
39454;SDS011;25155;41.890;23.446;2022-12-29T14:51:21;3.97;;;2.60;;
39454;SDS011;25155;41.890;23.446;2022-12-29T14:53:57;4.60;;;3.22;;
39454;SDS011;25155;41.890;23.446;2022-12-29T14:56:25;4.45;;;2.90;;
39454;SDS011;25155;41.890;23.446;2022-12-29T14:58:58;4.28;;;2.95;;
39454;SDS011;25155;41.890;23.446;2022-12-29T15:01:36;4.80;;;3.10;;
39454;SDS011;25155;41.890;23.446;2022-12-29T15:04:14;5.05;;;3.47;;
39454;SDS011;25155;41.890;23.446;2022-12-29T15:06:44;4.95;;;3.20;;
39454;SDS011;25155;41.890;23.446;2022-12-29T15:09:14;4.22;;;2.72;;
39454;SDS011;25155;41.890;23.446;2022-12-29T15:11:51;5.03;;;3.30;;
39454;SDS011;25155;41.890;23.446;2022-12-29T15:14:29;4.50;;;3.10;;
39454;SDS011;25155;41.890;23.446;2022-12-29T15:19:36;3.47;;;2.30;;
39454;SDS011;25155;41.890;23.446;2022-12-29T15:22:03;3.47;;;2.10;;
39454;SDS011;25155;41.890;23.446;2022-12-29T15:24:30;3.88;;;2.47;;
39454;SDS011;25155;41.890;23.446;2022-12-29T15:30:25;4.43;;;3.00;;
39454;SDS011;25155;41.890;23.446;2022-12-29T15:32:53;3.63;;;2.67;;
39454;SDS011;25155;41.890;23.446;2022-12-29T15:35:27;4.72;;;3.33;;
39454;SDS011;25155;41.890;23.446;2022-12-29T15:37:57;5.13;;;3.85;;
39454;SDS011;25155;41.890;23.446;2022-12-29T15:40:29;5.75;;;3.88;;
39454;SDS011;25155;41.890;23.446;2022-12-29T15:43:01;8.05;;;4.60;;
39454;SDS011;25155;41.890;23.446;2022-12-29T15:48:08;6.68;;;5.30;;
39454;SDS011;25155;41.890;23.446;2022-12-29T15:50:43;9.85;;;7.10;;
39454;SDS011;25155;41.890;23.446;2022-12-29T15:53:11;8.25;;;6.35;;
39454;SDS011;25155;41.890;23.446;2022-12-29T15:55:44;7.97;;;5.20;;
39454;SDS011;25155;41.890;23.446;2022-12-29T15:58:19;8.43;;;6.03;;
39454;SDS011;25155;41.890;23.446;2022-12-29T16:00:50;6.68;;;3.78;;
39454;SDS011;25155;41.890;23.446;2022-12-29T16:03:19;5.07;;;3.38;;
39454;SDS011;25155;41.890;23.446;2022-12-29T16:05:51;6.13;;;4.55;;
39454;SDS011;25155;41.890;23.446;2022-12-29T16:08:22;5.72;;;3.92;;
39454;SDS011;25155;41.890;23.446;2022-12-29T16:10:56;5.30;;;3.75;;
39454;SDS011;25155;41.890;23.446;2022-12-29T16:13:25;4.72;;;3.08;;
39454;SDS011;25155;41.890;23.446;2022-12-29T16:15:58;4.65;;;2.88;;
39454;SDS011;25155;41.890;23.446;2022-12-29T16:18:30;7.63;;;5.20;;
39454;SDS011;25155;41.890;23.446;2022-12-29T16:21:00;5.63;;;3.97;;
39454;SDS011;25155;41.890;23.446;2022-12-29T16:23:30;7.30;;;4.38;;
39454;SDS011;25155;41.890;23.446;2022-12-29T16:25:58;5.25;;;3.80;;
39454;SDS011;25155;41.890;23.446;2022-12-29T16:28:28;7.45;;;5.03;;
39454;SDS011;25155;41.890;23.446;2022-12-29T16:31:04;5.22;;;3.70;;
39454;SDS011;25155;41.890;23.446;2022-12-29T16:33:37;5.10;;;3.45;;
39454;SDS011;25155;41.890;23.446;2022-12-29T16:39:19;7.40;;;4.30;;
39454;SDS011;25155;41.890;23.446;2022-12-29T16:41:51;6.47;;;3.72;;
39454;SDS011;25155;41.890;23.446;2022-12-29T16:44:20;10.68;;;6.38;;
39454;SDS011;25155;41.890;23.446;2022-12-29T16:46:58;7.30;;;4.60;;
39454;SDS011;25155;41.890;23.446;2022-12-29T16:49:29;13.10;;;8.60;;
39454;SDS011;25155;41.890;23.446;2022-12-29T16:51:57;11.38;;;7.07;;
39454;SDS011;25155;41.890;23.446;2022-12-29T16:54:27;9.40;;;6.20;;
39454;SDS011;25155;41.890;23.446;2022-12-29T16:57:00;7.32;;;4.68;;
39454;SDS011;25155;41.890;23.446;2022-12-29T16:59:30;10.95;;;6.05;;
39454;SDS011;25155;41.890;23.446;2022-12-29T17:02:06;10.00;;;6.13;;
39454;SDS011;25155;41.890;23.446;2022-12-29T17:04:40;9.82;;;7.72;;
39454;SDS011;25155;41.890;23.446;2022-12-29T17:07:08;8.60;;;5.95;;
39454;SDS011;25155;41.890;23.446;2022-12-29T17:09:43;7.40;;;5.30;;
39454;SDS011;25155;41.890;23.446;2022-12-29T17:12:11;6.45;;;4.40;;
39454;SDS011;25155;41.890;23.446;2022-12-29T17:14:42;6.78;;;4.75;;
39454;SDS011;25155;41.890;23.446;2022-12-29T17:17:19;12.50;;;8.02;;
39454;SDS011;25155;41.890;23.446;2022-12-29T17:19:55;8.95;;;6.30;;
39454;SDS011;25155;41.890;23.446;2022-12-29T17:22:28;7.40;;;4.43;;
39454;SDS011;25155;41.890;23.446;2022-12-29T17:24:56;6.90;;;4.65;;
39454;SDS011;25155;41.890;23.446;2022-12-29T17:27:26;7.28;;;4.80;;
39454;SDS011;25155;41.890;23.446;2022-12-29T17:29:58;6.68;;;4.32;;
39454;SDS011;25155;41.890;23.446;2022-12-29T17:32:29;7.20;;;5.00;;
39454;SDS011;25155;41.890;23.446;2022-12-29T17:34:56;7.25;;;4.82;;
39454;SDS011;25155;41.890;23.446;2022-12-29T17:37:31;11.43;;;6.43;;
39454;SDS011;25155;41.890;23.446;2022-12-29T17:40:03;13.10;;;8.30;;
39454;SDS011;25155;41.890;23.446;2022-12-29T17:42:31;13.32;;;9.50;;
39454;SDS011;25155;41.890;23.446;2022-12-29T17:45:03;18.33;;;12.40;;
39454;SDS011;25155;41.890;23.446;2022-12-29T17:47:32;25.98;;;16.33;;
39454;SDS011;25155;41.890;23.446;2022-12-29T17:49:59;20.30;;;12.93;;
39454;SDS011;25155;41.890;23.446;2022-12-29T17:52:27;15.68;;;10.48;;
39454;SDS011;25155;41.890;23.446;2022-12-29T17:54:54;22.48;;;13.82;;
39454;SDS011;25155;41.890;23.446;2022-12-29T17:57:25;26.30;;;17.58;;
39454;SDS011;25155;41.890;23.446;2022-12-29T17:59:52;25.67;;;17.10;;
39454;SDS011;25155;41.890;23.446;2022-12-29T18:02:24;22.77;;;15.40;;
39454;SDS011;25155;41.890;23.446;2022-12-29T18:04:54;17.08;;;11.43;;
39454;SDS011;25155;41.890;23.446;2022-12-29T18:07:23;13.13;;;8.43;;
39454;SDS011;25155;41.890;23.446;2022-12-29T18:09:52;12.77;;;9.85;;
39454;SDS011;25155;41.890;23.446;2022-12-29T18:12:26;12.60;;;8.65;;
39454;SDS011;25155;41.890;23.446;2022-12-29T18:14:56;10.18;;;7.80;;
39454;SDS011;25155;41.890;23.446;2022-12-29T18:17:23;9.50;;;7.00;;
39454;SDS011;25155;41.890;23.446;2022-12-29T18:19:50;7.00;;;5.13;;
39454;SDS011;25155;41.890;23.446;2022-12-29T18:22:21;7.93;;;5.40;;
39454;SDS011;25155;41.890;23.446;2022-12-29T18:24:49;6.60;;;4.55;;